createdAt,value
2019-03-18T00:02:57.092Z,6.33
2019-03-18T00:05:25.604Z,7.53
2019-03-18T00:07:54.069Z,10.95
2019-03-18T00:10:23.282Z,9.23
2019-03-18T00:12:52.248Z,12.23
2019-03-18T00:15:21.225Z,6.80
2019-03-18T00:17:49.750Z,14.58
2019-03-18T00:20:18.229Z,8.73
2019-03-18T00:22:46.671Z,4.92
2019-03-18T00:25:16.054Z,3.65
2019-03-18T00:27:44.514Z,5.10
2019-03-18T00:30:20.655Z,15.32
2019-03-18T00:32:49.177Z,6.78
2019-03-18T00:35:17.711Z,8.58
2019-03-18T00:37:46.160Z,13.38
2019-03-18T00:40:18.423Z,8.05
2019-03-18T00:42:47.292Z,10.55
2019-03-18T00:45:15.966Z,11.35
2019-03-18T00:47:44.470Z,5.97
2019-03-18T00:50:16.457Z,6.28
2019-03-18T00:52:44.894Z,15.53
2019-03-18T00:55:13.343Z,9.13
2019-03-18T00:57:41.850Z,5.85
2019-03-18T01:00:14.967Z,13.60
2019-03-18T01:02:43.514Z,8.08
2019-03-18T01:05:12.088Z,7.83
2019-03-18T01:07:40.611Z,14.13
2019-03-18T01:10:11.967Z,10.90
2019-03-18T01:12:40.416Z,7.37
2019-03-18T01:15:10.415Z,10.48
2019-03-18T01:17:38.843Z,5.50
2019-03-18T01:20:13.237Z,8.13
2019-03-18T01:22:41.688Z,13.08
2019-03-18T01:25:10.664Z,6.30
2019-03-18T01:27:39.248Z,8.33
2019-03-18T01:30:10.242Z,4.37
2019-03-18T01:32:38.711Z,8.20
2019-03-18T01:35:09.388Z,8.93
2019-03-18T01:37:37.908Z,8.00
2019-03-18T01:40:11.407Z,13.32
2019-03-18T01:42:39.856Z,5.22
2019-03-18T01:45:09.047Z,9.13
2019-03-18T01:47:37.519Z,6.50
2019-03-18T01:50:14.750Z,5.08
2019-03-18T01:52:43.583Z,5.92
2019-03-18T01:55:12.101Z,3.62
2019-03-18T01:57:40.588Z,4.25
2019-03-18T02:00:29.919Z,4.70
2019-03-18T02:02:58.351Z,4.12
2019-03-18T02:05:26.923Z,8.40
2019-03-18T02:07:55.377Z,8.13
2019-03-18T02:10:23.812Z,6.62
2019-03-18T02:12:52.263Z,5.67
2019-03-18T02:15:20.699Z,5.80
2019-03-18T02:17:49.147Z,5.87
2019-03-18T02:20:19.992Z,11.15
2019-03-18T02:22:48.791Z,8.35
2019-03-18T02:25:17.236Z,10.13
2019-03-18T02:27:45.688Z,10.65
2019-03-18T02:30:18.919Z,8.23
2019-03-18T02:32:47.991Z,17.15
2019-03-18T02:35:16.537Z,9.80
2019-03-18T02:37:44.979Z,10.38
2019-03-18T02:40:13.509Z,9.38
2019-03-18T02:42:41.975Z,10.90
2019-03-18T02:45:11.584Z,9.25
2019-03-18T02:47:40.084Z,10.95
2019-03-18T02:50:10.525Z,10.93
2019-03-18T02:52:39.080Z,9.58
2019-03-18T02:55:08.761Z,8.83
2019-03-18T02:57:37.280Z,7.10
2019-03-18T03:00:15.395Z,8.90
2019-03-18T03:02:43.846Z,8.18
2019-03-18T03:05:13.334Z,10.95
2019-03-18T03:07:41.784Z,6.63
2019-03-18T03:10:12.061Z,6.65
2019-03-18T03:12:40.626Z,9.23
2019-03-18T03:15:13.539Z,10.23
2019-03-18T03:17:41.975Z,9.00
2019-03-18T03:20:12.041Z,12.60
2019-03-18T03:22:40.636Z,13.45
2019-03-18T03:25:10.225Z,5.70
2019-03-18T03:27:38.668Z,8.63
2019-03-18T03:30:10.244Z,10.13
2019-03-18T03:32:38.746Z,7.22
2019-03-18T03:35:07.512Z,9.73
2019-03-18T03:37:36.331Z,14.98
2019-03-18T03:40:07.861Z,11.55
2019-03-18T03:42:36.373Z,4.95
2019-03-18T03:45:07.634Z,11.10
2019-03-18T03:47:36.078Z,11.38
2019-03-18T03:50:06.873Z,11.48
2019-03-18T03:52:35.313Z,11.63
2019-03-18T03:55:05.492Z,11.88
2019-03-18T03:57:33.955Z,10.08
2019-03-18T04:00:03.458Z,12.15
2019-03-18T04:02:31.940Z,5.50
2019-03-18T04:05:00.485Z,11.35
2019-03-18T04:07:28.991Z,4.83
2019-03-18T04:09:57.523Z,13.48
2019-03-18T04:12:25.963Z,11.25
2019-03-18T04:14:54.434Z,9.68
2019-03-18T04:17:22.869Z,13.53
2019-03-18T04:19:51.392Z,14.80
2019-03-18T04:22:19.835Z,10.20
2019-03-18T04:24:48.369Z,14.90
2019-03-18T04:27:16.841Z,10.45
2019-03-18T04:29:45.280Z,18.25
2019-03-18T04:32:13.727Z,10.72
2019-03-18T04:34:42.171Z,14.53
2019-03-18T04:37:10.639Z,11.97
2019-03-18T04:39:39.152Z,16.52
2019-03-18T04:42:07.610Z,22.75
2019-03-18T04:44:36.182Z,17.75
2019-03-18T04:47:13.698Z,15.90
2019-03-18T04:49:34.791Z,13.35
2019-03-18T04:52:03.307Z,15.98
2019-03-18T04:54:31.759Z,10.43
2019-03-18T04:57:00.219Z,18.57
2019-03-18T04:59:28.672Z,21.95
2019-03-18T05:01:57.119Z,20.95
2019-03-18T05:04:25.579Z,23.87
2019-03-18T05:06:54.026Z,14.20
2019-03-18T05:09:22.498Z,19.60
2019-03-18T05:11:50.951Z,15.03
2019-03-18T05:14:19.391Z,20.88
2019-03-18T05:16:47.840Z,19.15
2019-03-18T05:19:16.296Z,20.48
2019-03-18T05:21:44.729Z,16.00
2019-03-18T05:24:13.186Z,17.57
2019-03-18T05:26:41.628Z,25.75
2019-03-18T05:29:10.098Z,22.15
2019-03-18T05:31:38.556Z,24.65
2019-03-18T05:34:07.023Z,20.23
2019-03-18T05:36:35.463Z,17.10
2019-03-18T05:39:05.078Z,18.92
2019-03-18T05:41:33.551Z,27.30
2019-03-18T05:44:01.999Z,20.82
2019-03-18T05:46:30.447Z,17.87
2019-03-18T05:48:58.958Z,30.20
2019-03-18T05:51:27.411Z,30.15
2019-03-18T05:53:55.894Z,35.90
2019-03-18T05:56:24.335Z,23.15
2019-03-18T05:58:52.779Z,20.52
2019-03-18T06:01:21.254Z,33.60
2019-03-18T06:03:49.683Z,31.42
2019-03-18T06:06:18.135Z,19.25
2019-03-18T06:08:46.612Z,30.88
2019-03-18T06:11:15.267Z,20.02
2019-03-18T06:13:43.712Z,43.00
2019-03-18T06:16:12.151Z,26.75
2019-03-18T06:18:40.603Z,42.17
2019-03-18T06:21:09.068Z,32.05
2019-03-18T06:23:37.522Z,34.33
2019-03-18T06:26:05.967Z,27.95
2019-03-18T06:28:34.407Z,25.40
2019-03-18T06:31:02.863Z,30.48
2019-03-18T06:33:31.303Z,35.17
2019-03-18T06:35:59.748Z,31.12
2019-03-18T06:38:28.207Z,33.73
2019-03-18T06:40:56.651Z,34.30
2019-03-18T06:43:25.092Z,28.90
2019-03-18T06:45:53.560Z,31.50
2019-03-18T06:48:22.918Z,31.10
2019-03-18T06:50:51.478Z,37.17
2019-03-18T06:53:19.979Z,36.98
2019-03-18T06:55:48.645Z,30.35
2019-03-18T06:58:17.138Z,25.23
2019-03-18T07:00:45.602Z,23.10
2019-03-18T07:03:14.047Z,37.17
2019-03-18T07:05:42.498Z,37.10
2019-03-18T07:08:10.949Z,27.25
2019-03-18T07:10:39.677Z,28.77
2019-03-18T07:13:08.122Z,37.85
2019-03-18T07:15:36.564Z,30.90
2019-03-18T07:18:17.129Z,31.02
2019-03-18T07:20:35.192Z,33.13
2019-03-18T07:23:03.658Z,31.42
2019-03-18T07:25:32.216Z,28.73
2019-03-18T07:28:00.656Z,29.00
2019-03-18T07:30:29.107Z,23.62
2019-03-18T07:32:57.556Z,28.62
2019-03-18T07:35:25.999Z,29.60
2019-03-18T07:37:54.467Z,30.40
2019-03-18T07:40:22.915Z,34.18
2019-03-18T07:42:51.444Z,35.78
2019-03-18T07:45:19.946Z,17.32
2019-03-18T07:47:48.399Z,34.23
2019-03-18T07:50:16.848Z,40.45
2019-03-18T07:52:45.298Z,43.55
2019-03-18T07:55:13.915Z,44.53
2019-03-18T07:57:42.419Z,33.30
2019-03-18T08:00:12.872Z,41.30
2019-03-18T08:05:09.952Z,25.05
2019-03-18T08:07:38.504Z,23.98
2019-03-18T08:10:33.731Z,33.33
2019-03-18T08:13:02.246Z,32.25
2019-03-18T08:15:30.685Z,35.88
2019-03-18T08:17:59.130Z,33.75
2019-03-18T08:20:27.606Z,25.45
2019-03-18T08:22:56.053Z,25.55
2019-03-18T08:25:24.518Z,20.25
2019-03-18T08:27:53.032Z,28.23
2019-03-18T08:30:21.513Z,40.35
2019-03-18T08:32:49.956Z,23.85
2019-03-18T08:35:18.392Z,17.00
2019-03-18T08:37:46.928Z,22.93
2019-03-18T08:40:15.382Z,29.60
2019-03-18T08:42:43.835Z,23.57
2019-03-18T08:45:15.176Z,25.55
2019-03-18T08:47:43.621Z,22.40
2019-03-18T08:50:12.984Z,21.02
2019-03-18T08:52:41.567Z,22.15
2019-03-18T08:55:11.423Z,24.60
2019-03-18T08:57:39.869Z,26.42
2019-03-18T09:00:11.620Z,27.02
2019-03-18T09:02:40.099Z,22.40
2019-03-18T09:05:09.882Z,25.35
2019-03-18T09:07:38.347Z,24.67
2019-03-18T09:10:12.749Z,27.45
2019-03-18T09:12:41.359Z,20.43
2019-03-18T09:15:11.418Z,18.12
2019-03-18T09:17:39.947Z,27.25
2019-03-18T09:20:16.624Z,20.52
2019-03-18T09:22:45.067Z,23.95
2019-03-18T09:25:13.724Z,17.73
2019-03-18T09:27:42.185Z,16.00
2019-03-18T09:30:13.922Z,23.22
2019-03-18T09:32:42.372Z,18.27
2019-03-18T09:35:10.883Z,14.65
2019-03-18T09:37:39.336Z,17.02
2019-03-18T09:40:16.119Z,15.10
2019-03-18T09:42:44.563Z,18.02
2019-03-18T09:45:17.080Z,10.43
2019-03-18T09:47:45.637Z,13.35
2019-03-18T09:50:14.927Z,17.87
2019-03-18T09:52:43.376Z,15.05
2019-03-18T09:55:11.986Z,19.92
2019-03-18T09:57:40.437Z,24.07
2019-03-18T10:00:14.369Z,17.32
2019-03-18T10:02:42.839Z,25.43
2019-03-18T10:05:11.338Z,27.87
2019-03-18T10:07:39.793Z,26.80
2019-03-18T10:10:14.608Z,36.53
2019-03-18T10:12:43.099Z,27.82
2019-03-18T10:15:18.956Z,28.75
2019-03-18T10:17:47.403Z,34.15
2019-03-18T10:20:15.919Z,18.75
2019-03-18T10:22:44.371Z,29.75
2019-03-18T10:25:12.849Z,26.75
2019-03-18T10:27:41.354Z,34.38
2019-03-18T10:30:12.036Z,29.48
2019-03-18T10:32:40.832Z,35.20
2019-03-18T10:35:09.855Z,30.80
2019-03-18T10:37:38.390Z,27.00
2019-03-18T10:40:09.919Z,35.45
2019-03-18T10:42:38.382Z,23.50
2019-03-18T10:45:14.672Z,26.05
2019-03-18T10:47:43.284Z,22.50
2019-03-18T10:50:18.658Z,10.82
2019-03-18T10:52:47.131Z,12.68
2019-03-18T10:55:15.651Z,21.60
2019-03-18T10:57:44.161Z,18.95
2019-03-18T11:00:14.991Z,25.52
2019-03-18T11:02:45.091Z,17.73
2019-03-18T11:05:14.259Z,23.85
2019-03-18T11:07:42.746Z,33.55
2019-03-18T11:10:15.965Z,28.52
2019-03-18T11:12:44.425Z,28.02
2019-03-18T11:15:20.608Z,41.65
2019-03-18T11:17:49.111Z,36.88
2019-03-18T11:20:17.743Z,31.93
2019-03-18T11:22:46.280Z,31.75
2019-03-18T11:25:15.663Z,25.45
2019-03-18T11:27:44.115Z,20.15
2019-03-18T11:30:14.317Z,6.37
2019-03-18T11:32:42.746Z,7.12
2019-03-18T11:35:11.204Z,8.35
2019-03-18T11:37:39.641Z,13.05
2019-03-18T11:40:19.804Z,12.35
2019-03-18T11:42:48.283Z,13.88
2019-03-18T11:45:17.080Z,14.85
2019-03-18T11:47:45.602Z,9.63
2019-03-18T11:50:18.152Z,8.75
2019-03-18T11:52:46.654Z,10.38
2019-03-18T11:55:23.255Z,14.58
2019-03-18T11:57:51.691Z,13.13
2019-03-18T12:00:23.954Z,13.05
2019-03-18T12:02:52.415Z,16.95
2019-03-18T12:05:22.987Z,28.32
2019-03-18T12:07:51.489Z,22.95
2019-03-18T12:10:21.005Z,27.70
2019-03-18T12:12:49.526Z,24.10
2019-03-18T12:15:27.832Z,29.87
2019-03-18T12:17:56.343Z,25.00
2019-03-18T12:20:25.817Z,36.15
2019-03-18T12:22:54.524Z,31.85
2019-03-18T12:25:23.088Z,41.68
2019-03-18T12:27:51.549Z,34.10
2019-03-18T12:30:23.908Z,30.70
2019-03-18T12:32:52.345Z,23.90
2019-03-18T12:35:20.875Z,22.95
2019-03-18T12:37:49.316Z,27.32
2019-03-18T12:40:18.103Z,27.15
2019-03-18T12:42:46.577Z,35.58
2019-03-18T12:45:19.908Z,22.90
2019-03-18T12:47:48.902Z,34.05
2019-03-18T12:50:39.118Z,23.90
2019-03-18T12:52:55.194Z,29.37
2019-03-18T12:55:23.951Z,32.58
2019-03-18T12:57:52.417Z,25.10
2019-03-18T13:00:29.271Z,25.17
2019-03-18T13:02:57.812Z,20.95
2019-03-18T13:05:26.392Z,29.67
2019-03-18T13:07:54.839Z,32.83
2019-03-18T13:10:23.303Z,25.45
2019-03-18T13:12:51.823Z,48.20
2019-03-18T13:15:21.210Z,22.22
2019-03-18T13:17:49.663Z,31.70
2019-03-18T13:20:21.687Z,28.32
2019-03-18T13:22:53.569Z,30.62
2019-03-18T13:25:20.371Z,28.17
2019-03-18T13:27:48.819Z,23.02
2019-03-18T13:30:21.403Z,32.83
2019-03-18T13:32:49.947Z,29.85
2019-03-18T13:35:18.393Z,33.25
2019-03-18T13:37:46.862Z,24.23
2019-03-18T13:40:19.312Z,35.45
2019-03-18T13:42:47.755Z,25.45
2019-03-18T13:45:20.625Z,35.03
2019-03-18T13:47:49.093Z,39.08
2019-03-18T13:50:21.654Z,28.95
2019-03-18T13:52:50.264Z,28.30
2019-03-18T13:55:18.719Z,35.05
2019-03-18T13:57:47.195Z,30.15
2019-03-18T14:00:17.126Z,21.20
2019-03-18T14:02:45.584Z,23.98
2019-03-18T14:05:14.499Z,25.50
2019-03-18T14:07:43.083Z,37.58
2019-03-18T14:10:16.368Z,33.50
2019-03-18T14:12:44.871Z,25.55
2019-03-18T14:15:19.139Z,13.28
2019-03-18T14:17:47.603Z,16.93
2019-03-18T14:20:20.858Z,15.53
2019-03-18T14:22:49.298Z,18.23
2019-03-18T14:25:17.747Z,20.92
2019-03-18T14:27:46.190Z,17.02
2019-03-18T14:30:19.003Z,24.20
2019-03-18T14:32:47.466Z,26.17
2019-03-18T14:35:16.012Z,22.30
2019-03-18T14:37:44.466Z,26.17
2019-03-18T14:40:15.619Z,25.72
2019-03-18T14:42:44.078Z,29.57
2019-03-18T14:45:18.357Z,32.55
2019-03-18T14:47:46.920Z,29.42
2019-03-18T14:50:16.803Z,28.38
2019-03-18T14:52:45.318Z,36.15
2019-03-18T14:55:15.028Z,30.23
2019-03-18T14:57:43.467Z,31.52
2019-03-18T15:00:15.231Z,24.15
2019-03-18T15:02:43.670Z,26.77
2019-03-18T15:05:14.368Z,21.07
2019-03-18T15:07:42.814Z,20.68
2019-03-18T15:10:15.858Z,32.38
2019-03-18T15:12:44.295Z,15.93
2019-03-18T15:15:15.284Z,25.57
2019-03-18T15:17:43.731Z,24.20
2019-03-18T15:20:13.911Z,20.02
2019-03-18T15:22:42.378Z,15.23
2019-03-18T15:25:16.248Z,18.57
2019-03-18T15:27:44.720Z,14.58
2019-03-18T15:30:18.432Z,26.25
2019-03-18T15:32:47.024Z,25.15
2019-03-18T15:35:17.046Z,25.10
2019-03-18T15:37:45.619Z,21.02
2019-03-18T15:40:19.095Z,27.20
2019-03-18T15:42:47.559Z,22.62
2019-03-18T15:45:17.703Z,27.25
2019-03-18T15:47:46.156Z,28.98
2019-03-18T15:50:16.872Z,32.50
2019-03-18T15:52:45.309Z,30.02
2019-03-18T15:55:13.842Z,28.52
2019-03-18T15:57:42.302Z,37.58
2019-03-18T16:00:21.935Z,33.98
2019-03-18T16:02:50.383Z,33.53
2019-03-18T16:05:18.822Z,27.35
2019-03-18T16:07:48.344Z,30.70
2019-03-18T16:10:18.033Z,30.77
2019-03-18T16:12:46.471Z,38.85
2019-03-18T16:15:16.071Z,36.90
2019-03-18T16:17:44.586Z,41.80
2019-03-18T16:20:24.304Z,38.55
2019-03-18T16:22:52.807Z,28.40
2019-03-18T16:25:21.715Z,43.42
2019-03-18T16:27:50.258Z,46.60
2019-03-18T16:30:23.358Z,36.77
2019-03-18T16:32:51.811Z,35.03
2019-03-18T16:35:20.248Z,23.92
2019-03-18T16:37:48.701Z,39.18
2019-03-18T16:40:20.974Z,42.08
2019-03-18T16:42:49.607Z,48.25
2019-03-18T16:45:18.880Z,39.58
2019-03-18T16:47:47.363Z,28.17
2019-03-18T16:50:20.990Z,39.85
2019-03-18T16:52:49.498Z,33.67
2019-03-18T16:55:17.934Z,41.60
2019-03-18T16:57:46.383Z,43.45
2019-03-18T17:00:20.872Z,34.85
2019-03-18T17:02:49.441Z,45.48
2019-03-18T17:05:17.957Z,26.25
2019-03-18T17:07:46.535Z,18.27
2019-03-18T17:10:16.159Z,24.23
2019-03-18T17:12:44.650Z,27.22
2019-03-18T17:15:20.670Z,35.15
2019-03-18T17:17:49.111Z,29.80
2019-03-18T17:20:17.903Z,25.15
2019-03-18T17:22:50.392Z,32.63
2019-03-18T17:25:19.323Z,21.17
2019-03-18T17:27:47.811Z,38.60
2019-03-18T17:30:17.790Z,34.18
2019-03-18T17:32:46.580Z,24.23
2019-03-18T17:35:15.100Z,29.75
2019-03-18T17:37:43.700Z,18.98
2019-03-18T17:40:18.805Z,34.05
2019-03-18T17:42:47.315Z,22.05
2019-03-18T17:45:16.709Z,27.37
2019-03-18T17:47:45.326Z,26.87
2019-03-18T17:50:28.515Z,23.77
2019-03-18T17:53:02.991Z,34.43
2019-03-18T17:57:54.985Z,23.62
2019-03-18T18:00:25.145Z,40.55
2019-03-18T18:02:53.606Z,29.55
2019-03-18T18:05:22.851Z,30.23
2019-03-18T18:07:51.382Z,32.98
2019-03-18T18:10:19.836Z,26.27
2019-03-18T18:12:48.287Z,24.82
2019-03-18T18:15:16.736Z,31.87
2019-03-18T18:17:45.180Z,36.05
2019-03-18T18:20:14.860Z,25.20
2019-03-18T18:22:43.371Z,26.75
2019-03-18T18:25:15.479Z,33.53
2019-03-18T18:27:43.965Z,30.25
2019-03-18T18:30:17.440Z,32.80
2019-03-18T18:32:45.871Z,33.55
2019-03-18T18:35:14.347Z,24.92
2019-03-18T18:37:42.890Z,26.00
2019-03-18T18:40:22.836Z,23.92
2019-03-18T18:42:51.287Z,18.12
2019-03-18T18:45:21.273Z,14.10
2019-03-18T18:47:49.917Z,19.77
2019-03-18T18:50:18.380Z,25.25
2019-03-18T18:52:46.896Z,23.87
2019-03-18T18:55:15.519Z,16.30
2019-03-18T18:57:43.966Z,27.50
2019-03-18T19:00:22.404Z,21.17
2019-03-18T19:02:50.994Z,16.62
2019-03-18T19:05:19.711Z,15.78
2019-03-18T19:07:48.326Z,14.23
2019-03-18T19:10:20.859Z,26.77
2019-03-18T19:12:49.446Z,20.75
2019-03-18T19:15:20.967Z,23.77
2019-03-18T19:17:49.493Z,29.60
2019-03-18T19:20:18.088Z,24.47
2019-03-18T19:22:46.537Z,22.17
2019-03-18T19:25:16.047Z,28.12
2019-03-18T19:27:44.707Z,27.90
2019-03-18T19:30:18.347Z,22.13
2019-03-18T19:32:46.805Z,23.00
2019-03-18T19:35:15.306Z,26.55
2019-03-18T19:37:43.825Z,29.25
2019-03-18T19:40:39.253Z,21.48
2019-03-18T19:43:07.696Z,24.57
2019-03-18T19:45:55.543Z,20.92
2019-03-18T19:48:24.003Z,24.32
2019-03-18T19:50:52.517Z,29.70
2019-03-18T19:53:20.963Z,29.95
2019-03-18T19:55:49.409Z,14.98
2019-03-18T19:58:17.884Z,26.02
2019-03-18T20:00:46.320Z,34.95
2019-03-18T20:03:14.811Z,25.92
2019-03-18T20:05:43.320Z,37.25
2019-03-18T20:08:11.763Z,23.25
2019-03-18T20:10:40.226Z,17.82
2019-03-18T20:13:08.676Z,45.35
2019-03-18T20:15:37.127Z,24.37
2019-03-18T20:18:05.587Z,27.60
2019-03-18T20:20:34.023Z,24.25
2019-03-18T20:23:02.684Z,23.52
2019-03-18T20:25:31.536Z,29.87
2019-03-18T20:27:59.968Z,32.78
2019-03-18T20:30:28.439Z,28.83
2019-03-18T20:32:57.058Z,17.65
2019-03-18T20:35:25.674Z,20.50
2019-03-18T20:37:54.156Z,21.90
2019-03-18T20:40:22.680Z,27.73
2019-03-18T20:42:51.201Z,26.57
2019-03-18T20:45:24.517Z,27.52
2019-03-18T20:47:53.067Z,22.07
2019-03-18T20:50:24.852Z,20.25
2019-03-18T20:52:53.297Z,26.75
2019-03-18T20:55:21.813Z,22.52
2019-03-18T20:58:09.593Z,23.83
2019-03-18T21:00:38.064Z,28.17
2019-03-18T21:03:06.496Z,19.10
2019-03-18T21:05:34.964Z,26.97
2019-03-18T21:08:03.404Z,27.48
2019-03-18T21:10:31.874Z,33.65
2019-03-18T21:13:00.393Z,16.15
2019-03-18T21:15:28.836Z,24.12
2019-03-18T21:17:57.279Z,20.43
2019-03-18T21:20:27.769Z,25.72
2019-03-18T21:25:24.340Z,21.68
2019-03-18T21:27:52.801Z,22.22
2019-03-18T21:30:22.695Z,26.80
2019-03-18T21:32:51.292Z,18.05
2019-03-18T21:35:19.832Z,23.50
2019-03-18T21:37:48.303Z,51.95
2019-03-18T21:40:18.967Z,34.48
2019-03-18T21:42:47.407Z,26.25
2019-03-18T21:45:17.526Z,37.67
2019-03-18T21:47:46.050Z,26.70
2019-03-18T21:50:16.211Z,21.57
2019-03-18T21:52:45.115Z,12.85
2019-03-18T21:55:14.714Z,24.30
2019-03-18T21:57:43.285Z,25.55
2019-03-18T22:00:17.878Z,24.65
2019-03-18T22:02:46.428Z,26.87
2019-03-18T22:05:15.347Z,23.40
2019-03-18T22:07:43.817Z,26.30
2019-03-18T22:10:16.987Z,24.43
2019-03-18T22:12:46.219Z,20.02
2019-03-18T22:15:15.491Z,23.27
2019-03-18T22:17:43.971Z,36.48
2019-03-18T22:20:14.745Z,14.73
2019-03-18T22:22:43.323Z,17.07
2019-03-18T22:25:13.219Z,23.22
2019-03-18T22:27:41.733Z,18.55
2019-03-18T22:30:35.264Z,18.73
2019-03-18T22:33:03.726Z,20.50
2019-03-18T22:35:32.165Z,23.22
2019-03-18T22:38:00.634Z,26.35
2019-03-18T22:40:29.108Z,36.10
2019-03-18T22:42:57.559Z,17.98
2019-03-18T22:45:26.007Z,22.85
2019-03-18T22:47:54.452Z,22.60
2019-03-18T22:50:22.911Z,21.12
2019-03-18T22:52:51.347Z,21.37
2019-03-18T22:55:19.786Z,25.97
2019-03-18T22:57:48.255Z,22.80
2019-03-18T23:00:22.262Z,23.52
2019-03-18T23:02:50.735Z,19.55
2019-03-18T23:05:19.223Z,18.17
2019-03-18T23:07:47.658Z,33.65
2019-03-18T23:10:16.111Z,17.42
2019-03-18T23:12:44.576Z,27.22
2019-03-18T23:15:13.021Z,28.47
2019-03-18T23:17:41.635Z,32.25
2019-03-18T23:20:10.165Z,25.75
2019-03-18T23:22:38.616Z,20.85
2019-03-18T23:25:08.267Z,24.40
2019-03-18T23:27:37.098Z,28.70
2019-03-18T23:30:13.994Z,24.40
2019-03-18T23:32:42.498Z,29.60
2019-03-18T23:35:11.786Z,26.70
2019-03-18T23:37:40.236Z,21.55
2019-03-18T23:40:29.533Z,25.48
2019-03-18T23:42:57.987Z,26.45
2019-03-18T23:45:26.442Z,16.27
2019-03-18T23:47:54.876Z,25.05
2019-03-18T23:50:23.343Z,23.92
2019-03-18T23:52:51.782Z,31.87
2019-03-18T23:55:20.239Z,24.67
2019-03-18T23:57:48.687Z,26.57
